Time;durP1;ratioP1;P1;durP2;ratioP2;P2;SDS_P1;SDS_P2;PMS_P1;PMS_P2;Temp;Humidity;BMP_temperature;BMP_pressure;BME280_temperature;BME280_humidity;BME280_pressure;Samples;Min_cycle;Max_cycle;Signal;HPM_P1;HPM_P2
2022/04/02 00:02:00;;;;;;;56.70;36.95;;;5.60;99.90;;;;;;5011925;23;20001;-79
2022/04/02 00:04:26;;;;;;;56.67;39.90;;;5.50;99.90;;;;;;4998272;28;20031;-80
2022/04/02 00:06:53;;;;;;;;;;;5.50;99.90;;;;;;4994804;28;20038;-79
2022/04/02 00:09:22;;;;;;;45.58;35.35;;;5.50;99.90;;;;;;4996355;28;19906;-79
2022/04/02 00:11:48;;;;;;;46.17;36.13;;;5.60;99.90;;;;;;4994882;28;20011;-80
2022/04/02 00:14:14;;;;;;;42.72;34.13;;;5.70;99.90;;;;;;4996492;28;20071;-80
2022/04/02 00:16:40;;;;;;;;;;;5.90;99.90;;;;;;4995988;28;20014;-79
2022/04/02 00:19:07;;;;;;;42.75;32.58;;;5.90;99.90;;;;;;5008879;28;19977;-78
2022/04/02 00:21:33;;;;;;;41.53;31.83;;;5.80;99.90;;;;;;4996051;28;20030;-78
2022/04/02 00:23:59;;;;;;;;;;;5.70;99.90;;;;;;4994809;28;20081;-79
2022/04/02 00:26:25;;;;;;;37.72;28.38;;;5.80;99.90;;;;;;4993603;28;19922;-79
2022/04/02 00:28:51;;;;;;;;;;;5.80;99.90;;;;;;4994842;28;20031;-79
2022/04/02 00:31:18;;;;;;;36.78;29.83;;;5.70;99.90;;;;;;4993909;28;19904;-81
2022/04/02 00:33:46;;;;;;;36.42;27.95;;;5.70;99.90;;;;;;4992231;28;20089;-78
2022/04/02 00:36:13;;;;;;;40.28;32.03;;;5.70;99.90;;;;;;4993216;28;20042;-80
2022/04/02 00:38:39;;;;;;;36.67;29.95;;;5.60;99.90;;;;;;4996773;28;20030;-79
2022/04/02 00:41:05;;;;;;;40.30;31.45;;;5.50;99.90;;;;;;4996134;28;20045;-79
2022/04/02 00:43:37;;;;;;;37.47;29.55;;;5.50;99.90;;;;;;4995638;28;20094;-79
2022/04/02 00:46:08;;;;;;;38.25;30.17;;;5.50;99.90;;;;;;4997006;28;20083;-80
2022/04/02 00:48:34;;;;;;;38.55;28.05;;;5.40;99.90;;;;;;4986387;28;20031;-79
2022/04/02 00:51:01;;;;;;;35.53;28.08;;;5.40;99.90;;;;;;4983053;28;20026;-78
2022/04/02 00:53:37;;;;;;;36.67;29.30;;;5.30;99.90;;;;;;4994773;28;20113;-78
2022/04/02 00:56:04;;;;;;;35.67;28.75;;;5.30;99.90;;;;;;4978969;28;20027;-78
2022/04/02 00:58:30;;;;;;;41.70;30.48;;;5.20;99.90;;;;;;4980816;28;20608;-79
2022/04/02 01:00:56;;;;;;;37.28;29.58;;;5.20;99.90;;;;;;4981354;28;20147;-78
2022/04/02 01:03:23;;;;;;;;;;;5.10;99.90;;;;;;4981611;28;20046;-79
2022/04/02 01:05:50;;;;;;;37.65;29.35;;;5.20;99.90;;;;;;4979609;28;20362;-78
2022/04/02 01:08:16;;;;;;;41.20;28.90;;;5.20;99.90;;;;;;4975335;28;20386;-78
2022/04/02 01:10:42;;;;;;;37.05;30.52;;;5.20;99.90;;;;;;4976583;28;20078;-78
2022/04/02 01:13:09;;;;;;;;;;;5.10;99.90;;;;;;4978936;28;20030;-78
2022/04/02 01:15:36;;;;;;;36.83;28.87;;;5.10;99.90;;;;;;4977017;28;19917;-78
2022/04/02 01:18:02;;;;;;;34.67;27.45;;;5.10;99.90;;;;;;4975724;28;20047;-78
2022/04/02 01:20:29;;;;;;;37.15;28.38;;;5.10;99.90;;;;;;4976382;28;20117;-78
2022/04/02 01:22:55;;;;;;;38.22;29.92;;;5.00;99.90;;;;;;4979953;28;20035;-77
2022/04/02 01:25:21;;;;;;;;;;;5.00;99.90;;;;;;4978984;28;20077;-77
2022/04/02 01:27:47;;;;;;;35.13;26.17;;;4.90;99.90;;;;;;4984991;28;20359;-77
2022/04/02 01:30:14;;;;;;;32.60;26.88;;;5.00;99.90;;;;;;4978042;28;20086;-77
2022/04/02 01:32:41;;;;;;;34.45;27.23;;;5.00;99.90;;;;;;4982392;28;20035;-78
2022/04/02 01:35:08;;;;;;;35.20;27.83;;;5.00;99.90;;;;;;4971217;28;20046;-78
2022/04/02 01:37:35;;;;;;;35.63;26.00;;;5.00;99.90;;;;;;4977858;28;20063;-77
2022/04/02 01:40:04;;;;;;;32.88;25.67;;;4.90;99.90;;;;;;4987658;28;20431;-78
2022/04/02 01:42:30;;;;;;;35.95;26.90;;;4.90;99.90;;;;;;4983280;28;20031;-78
2022/04/02 01:44:55;;;;;;;;;;;4.90;99.90;;;;;;4982644;28;20049;-78
2022/04/02 01:47:21;;;;;;;34.38;26.45;;;4.80;99.90;;;;;;4977116;28;19917;-78
2022/04/02 01:49:47;;;;;;;35.45;26.95;;;4.80;99.90;;;;;;4982819;28;20050;-78
2022/04/02 01:52:19;;;;;;;37.67;26.58;;;4.70;99.90;;;;;;4983049;28;20121;-78
2022/04/02 01:54:45;;;;;;;35.47;27.70;;;4.60;99.90;;;;;;4982830;28;20065;-78
2022/04/02 01:57:11;;;;;;;39.72;31.30;;;4.60;99.90;;;;;;4982657;28;20081;-79
2022/04/02 01:59:40;;;;;;;36.92;28.20;;;4.60;99.90;;;;;;4989128;28;20035;-79
2022/04/02 02:02:07;;;;;;;36.80;28.80;;;4.70;99.90;;;;;;4979397;28;20055;-79
2022/04/02 02:04:33;;;;;;;35.78;27.48;;;4.70;99.90;;;;;;4980311;28;20018;-80
2022/04/02 02:07:00;;;;;;;30.45;24.40;;;4.80;99.90;;;;;;4980346;28;20030;-79
2022/04/02 02:09:26;;;;;;;30.40;23.10;;;4.70;99.90;;;;;;4981393;28;20031;-80
2022/04/02 02:11:51;;;;;;;;;;;4.70;99.90;;;;;;4980960;28;20041;-78
2022/04/02 02:14:17;;;;;;;19.08;12.30;;;4.70;99.90;;;;;;4981438;28;19949;-79
2022/04/02 02:16:43;;;;;;;;;;;4.70;99.90;;;;;;4981181;28;20023;-78
2022/04/02 02:19:08;;;;;;;12.65;9.85;;;4.70;99.90;;;;;;4981123;28;19910;-79
2022/04/02 02:21:34;;;;;;;;;;;4.70;99.90;;;;;;4980635;28;20134;-79
2022/04/02 02:23:59;;;;;;;17.45;11.13;;;4.70;99.90;;;;;;4981637;28;20017;-79
2022/04/02 02:26:25;;;;;;;;;;;4.60;99.90;;;;;;4981203;28;20035;-77
2022/04/02 02:28:51;;;;;;;15.50;10.20;;;4.60;99.90;;;;;;4981429;28;19906;-79
2022/04/02 02:31:17;;;;;;;11.10;7.88;;;4.50;99.90;;;;;;4982202;28;20038;-79
2022/04/02 02:36:27;;;;;;;11.95;7.43;;;4.50;99.90;;;;;;4982019;28;19934;-80
2022/04/02 02:38:53;;;;;;;;;;;4.50;99.90;;;;;;4983445;28;20034;-79
2022/04/02 02:41:19;;;;;;;14.05;7.97;;;4.60;99.90;;;;;;4980703;28;19941;-79
2022/04/02 02:43:44;;;;;;;10.60;7.68;;;4.50;99.90;;;;;;4980454;28;20030;-79
2022/04/02 02:46:14;;;;;;;;;;;4.50;99.90;;;;;;4982120;28;20030;-79
2022/04/02 02:48:40;;;;;;;12.07;7.03;;;4.40;99.90;;;;;;4983479;28;20005;-79
2022/04/02 02:51:06;;;;;;;12.30;7.90;;;4.40;99.90;;;;;;4983133;28;20050;-79
2022/04/02 02:53:32;;;;;;;;;;;4.40;99.90;;;;;;4982522;28;20019;-78
2022/04/02 02:55:57;;;;;;;14.05;8.77;;;4.50;99.90;;;;;;4980887;28;19910;-79
2022/04/02 02:58:23;;;;;;;;;;;4.40;99.90;;;;;;4982364;28;20031;-79
2022/04/02 03:00:48;;;;;;;13.93;7.72;;;4.40;99.90;;;;;;4981093;28;19918;-79
2022/04/02 03:03:14;;;;;;;;;;;4.40;99.90;;;;;;4983547;28;20225;-79
2022/04/02 03:05:40;;;;;;;12.95;8.85;;;4.40;99.90;;;;;;4982651;28;19910;-79
2022/04/02 03:08:05;;;;;;;;;;;4.30;99.90;;;;;;4982866;28;20058;-79
2022/04/02 03:10:31;;;;;;;14.27;9.07;;;4.30;99.90;;;;;;4983614;28;20276;-79
2022/04/02 03:12:57;;;;;;;;;;;4.20;99.90;;;;;;4982625;28;20039;-79
2022/04/02 03:15:24;;;;;;;13.77;8.30;;;4.10;99.90;;;;;;4982698;28;19941;-79
2022/04/02 03:17:52;;;;;;;14.20;8.35;;;4.10;99.90;;;;;;4982507;28;20130;-79
2022/04/02 03:20:19;;;;;;;14.70;9.32;;;4.10;99.90;;;;;;4980594;28;20042;-78
2022/04/02 03:22:46;;;;;;;15.32;8.20;;;4.00;99.90;;;;;;4982056;28;20082;-79
2022/04/02 03:25:15;;;;;;;11.75;8.50;;;3.90;99.90;;;;;;4981936;28;20038;-79
2022/04/02 03:27:43;;;;;;;15.13;8.57;;;3.90;99.90;;;;;;4983110;28;20054;-79
2022/04/02 03:30:10;;;;;;;12.77;8.25;;;3.80;99.90;;;;;;4981330;28;20034;-79
2022/04/02 03:32:37;;;;;;;11.85;8.55;;;3.80;99.90;;;;;;4982959;28;20104;-79
2022/04/02 03:35:03;;;;;;;11.65;8.82;;;3.80;99.90;;;;;;4986104;28;20045;-79
2022/04/02 03:37:30;;;;;;;13.35;7.70;;;3.80;99.90;;;;;;4984891;28;20034;-80
2022/04/02 03:39:56;;;;;;;10.77;8.23;;;3.80;99.90;;;;;;4985888;28;20046;-79
2022/04/02 03:42:22;;;;;;;11.40;7.53;;;3.80;99.90;;;;;;4984267;28;20050;-79
2022/04/02 03:44:48;;;;;;;;;;;3.90;99.90;;;;;;4983648;28;20031;-79
2022/04/02 03:47:15;;;;;;;12.90;7.55;;;3.80;99.90;;;;;;4983368;28;19966;-79
2022/04/02 03:49:44;;;;;;;11.88;7.47;;;3.90;99.90;;;;;;4982302;28;20031;-79
2022/04/02 03:52:10;;;;;;;9.25;7.15;;;3.90;99.90;;;;;;4983684;28;20487;-79
2022/04/02 03:54:36;;;;;;;;;;;3.90;99.90;;;;;;4984188;28;20061;-79
2022/04/02 03:57:06;;;;;;;14.35;7.53;;;3.90;99.90;;;;;;4983601;28;19913;-79
2022/04/02 03:59:32;;;;;;;10.80;7.40;;;3.90;99.90;;;;;;4983850;28;20130;-78
2022/04/02 04:01:59;;;;;;;10.63;7.47;;;3.90;99.90;;;;;;4984754;28;20050;-79
2022/04/02 04:04:25;;;;;;;9.90;7.25;;;3.90;99.90;;;;;;4985033;28;20090;-79
2022/04/02 04:06:51;;;;;;;11.48;7.15;;;4.00;99.90;;;;;;4986491;28;20023;-79
2022/04/02 04:09:18;;;;;;;10.68;7.60;;;3.90;99.90;;;;;;4985081;28;20082;-80
2022/04/02 04:11:43;;;;;;;12.85;8.38;;;3.90;99.90;;;;;;4988777;28;20081;-79
2022/04/02 04:14:09;;;;;;;;;;;3.90;99.90;;;;;;4993606;28;20026;-79
2022/04/02 04:16:35;;;;;;;9.52;6.82;;;3.90;99.90;;;;;;4989953;28;19949;-79
2022/04/02 04:19:01;;;;;;;14.15;8.57;;;3.80;99.90;;;;;;4985837;28;20027;-79
2022/04/02 04:21:27;;;;;;;;;;;3.80;99.90;;;;;;4985773;28;20038;-79
2022/04/02 04:23:52;;;;;;;10.85;7.43;;;3.80;99.90;;;;;;4984567;28;19906;-79
2022/04/02 04:26:18;;;;;;;;;;;3.80;99.90;;;;;;4986567;28;20039;-79
2022/04/02 04:28:44;;;;;;;12.48;8.43;;;3.80;99.90;;;;;;4986423;28;19910;-79
2022/04/02 04:31:10;;;;;;;;;;;3.90;99.90;;;;;;4985004;28;20034;-79
2022/04/02 04:33:37;;;;;;;11.25;7.38;;;3.90;99.90;;;;;;4985068;28;19978;-78
2022/04/02 04:36:03;;;;;;;11.80;8.13;;;3.90;99.90;;;;;;4985739;28;20031;-79
2022/04/02 04:38:30;;;;;;;11.70;8.27;;;3.90;99.90;;;;;;4986083;28;20086;-79
2022/04/02 04:40:56;;;;;;;9.70;7.63;;;3.90;99.90;;;;;;4985220;28;20031;-79
2022/04/02 04:43:22;;;;;;;15.45;8.77;;;4.00;99.90;;;;;;4988006;28;20018;-79
2022/04/02 04:45:47;;;;;;;;;;;4.00;99.90;;;;;;4989879;28;20058;-79
2022/04/02 04:48:13;;;;;;;10.95;6.70;;;3.90;99.90;;;;;;4987660;28;20379;-78
2022/04/02 04:50:38;;;;;;;;;;;4.00;99.90;;;;;;4989235;28;20027;-80
2022/04/02 04:53:04;;;;;;;11.23;8.27;;;4.00;99.90;;;;;;4988221;28;19906;-80
2022/04/02 04:55:30;;;;;;;;;;;3.90;99.90;;;;;;4989904;28;20027;-79
2022/04/02 04:57:55;;;;;;;16.08;8.13;;;4.00;99.90;;;;;;4987949;28;19910;-79
2022/04/02 05:00:22;;;;;;;;;;;4.00;99.90;;;;;;4990255;28;20066;-79
2022/04/02 05:02:48;;;;;;;10.70;6.70;;;4.00;99.90;;;;;;4988265;28;19906;-79
2022/04/02 05:05:14;;;;;;;;;;;4.00;99.90;;;;;;4987997;28;20292;-79
2022/04/02 05:07:43;;;;;;;8.95;6.93;;;4.00;99.90;;;;;;4988137;28;19910;-78
2022/04/02 05:10:10;;;;;;;12.60;9.23;;;4.10;99.90;;;;;;4988294;28;20027;-79
2022/04/02 05:12:36;;;;;;;16.45;7.93;;;4.10;99.90;;;;;;4993759;28;20079;-81
2022/04/02 05:15:04;;;;;;;12.63;8.25;;;4.10;99.90;;;;;;4988255;28;20030;-78
2022/04/02 05:17:31;;;;;;;12.02;7.65;;;4.10;99.90;;;;;;4988719;28;20039;-79
2022/04/02 05:19:57;;;;;;;11.43;7.38;;;4.10;99.90;;;;;;4987243;28;20049;-77
2022/04/02 05:22:22;;;;;;;;;;;4.20;99.90;;;;;;4986479;28;20019;-78
2022/04/02 05:24:48;;;;;;;10.50;7.47;;;4.30;99.90;;;;;;4989015;28;19940;-79
2022/04/02 05:27:14;;;;;;;;;;;4.30;99.90;;;;;;4991183;28;20456;-79
2022/04/02 05:29:39;;;;;;;13.68;6.88;;;4.30;99.90;;;;;;4989198;28;19906;-79
2022/04/02 05:32:05;;;;;;;;;;;4.40;99.90;;;;;;4988404;28;20086;-79
2022/04/02 05:34:31;;;;;;;13.45;9.18;;;4.30;99.90;;;;;;4986627;28;19997;-79
2022/04/02 05:36:56;;;;;;;;;;;4.30;99.90;;;;;;4987264;28;20035;-79
2022/04/02 05:39:22;;;;;;;13.05;7.68;;;4.30;99.90;;;;;;4983103;28;19925;-79
2022/04/02 05:41:48;;;;;;;;;;;4.30;99.90;;;;;;4981522;28;20099;-79
2022/04/02 05:44:14;;;;;;;13.50;7.45;;;4.40;99.90;;;;;;4983294;28;19950;-79
2022/04/02 05:46:40;;;;;;;;;;;4.30;99.90;;;;;;4985058;28;20151;-79
2022/04/02 05:49:05;;;;;;;11.50;8.05;;;4.20;99.90;;;;;;4983166;28;20301;-78
2022/04/02 05:51:31;;;;;;;;;;;4.20;99.90;;;;;;4983731;28;20538;-79
2022/04/02 05:53:57;;;;;;;13.40;8.43;;;4.20;99.90;;;;;;4980071;28;19910;-79
2022/04/02 05:56:23;;;;;;;;;;;4.30;99.90;;;;;;4981386;28;20062;-79
2022/04/02 05:58:50;;;;;;;12.93;6.57;;;4.30;99.90;;;;;;4980765;28;20001;-78
2022/04/02 06:01:16;;;;;;;8.98;6.53;;;4.40;99.90;;;;;;4983035;28;20526;-79
2022/04/02 06:03:42;;;;;;;;;;;4.40;99.90;;;;;;4984449;28;20031;-79
2022/04/02 06:06:07;;;;;;;10.55;7.28;;;4.50;99.90;;;;;;4983404;28;19910;-79
2022/04/02 06:08:33;;;;;;;;;;;4.50;99.90;;;;;;4985128;28;20022;-79
2022/04/02 06:11:00;;;;;;;7.78;5.53;;;4.50;99.90;;;;;;4984570;28;19973;-79
2022/04/02 06:13:27;;;;;;;7.93;5.35;;;4.40;99.90;;;;;;4984395;28;20034;-79
2022/04/02 06:15:53;;;;;;;8.70;6.40;;;4.60;99.90;;;;;;4984196;28;20037;-79
2022/04/02 06:18:18;;;;;;;10.15;6.93;;;4.60;99.90;;;;;;4983400;28;20031;-80
2022/04/02 06:20:45;;;;;;;;;;;4.50;99.90;;;;;;4986595;28;20080;-78
2022/04/02 06:23:11;;;;;;;11.48;7.15;;;4.40;99.90;;;;;;4985049;28;19906;-79
2022/04/02 06:25:37;;;;;;;10.93;7.75;;;4.50;99.90;;;;;;4986086;28;20040;-80
2022/04/02 06:28:02;;;;;;;;;;;4.50;99.90;;;;;;4984812;28;20027;-79
2022/04/02 06:30:28;;;;;;;13.38;9.18;;;4.40;99.90;;;;;;4984553;28;19910;-79
2022/04/02 06:32:54;;;;;;;;;;;4.40;99.90;;;;;;4985105;28;20094;-79
2022/04/02 06:35:20;;;;;;;11.40;7.10;;;4.50;99.90;;;;;;4985100;28;19955;-79
2022/04/02 06:37:47;;;;;;;;;;;4.60;99.90;;;;;;4985041;28;20122;-79
2022/04/02 06:40:13;;;;;;;11.13;7.68;;;4.40;99.90;;;;;;4985498;28;19925;-78
2022/04/02 06:42:38;;;;;;;;;;;4.40;99.90;;;;;;4986133;28;20058;-78
2022/04/02 06:45:05;;;;;;;15.10;9.30;;;4.40;99.90;;;;;;4985792;28;20347;-79
2022/04/02 06:47:33;;;;;;;9.75;7.20;;;4.40;99.90;;;;;;4993670;28;20027;-79
2022/04/02 06:50:05;;;;;;;10.57;7.05;;;4.40;99.90;;;;;;4992765;28;20027;-79
2022/04/02 06:52:31;;;;;;;13.25;8.57;;;4.50;99.90;;;;;;4985228;28;20094;-79
2022/04/02 06:54:57;;;;;;;13.82;9.20;;;4.50;99.90;;;;;;4984145;28;20047;-78
2022/04/02 06:57:23;;;;;;;;;;;4.40;99.90;;;;;;4986633;28;20033;-79
2022/04/02 06:59:49;;;;;;;14.07;8.48;;;4.50;99.90;;;;;;4985253;28;20295;-79
2022/04/02 07:02:16;;;;;;;;;;;4.70;99.90;;;;;;4984930;28;20034;-78
2022/04/02 07:04:42;;;;;;;21.60;13.48;;;4.80;99.90;;;;;;4985873;28;19952;-78
2022/04/02 07:07:08;;;;;;;23.98;13.02;;;4.70;99.90;;;;;;4986211;28;20531;-80
2022/04/02 07:09:34;;;;;;;;;;;4.90;99.90;;;;;;4986463;28;20034;-79
2022/04/02 07:12:00;;;;;;;25.77;16.00;;;4.90;99.90;;;;;;4985657;28;20252;-79
2022/04/02 07:14:25;;;;;;;;;;;5.10;99.90;;;;;;4987583;28;20073;-79
2022/04/02 07:16:51;;;;;;;35.60;20.40;;;5.00;99.90;;;;;;4984877;28;19910;-79
2022/04/02 07:19:21;;;;;;;;;;;5.00;99.90;;;;;;4985661;28;20564;-79
2022/04/02 07:21:46;;;;;;;32.65;18.70;;;5.20;99.90;;;;;;4986476;28;19929;-78
2022/04/02 07:24:13;;;;;;;;;;;5.30;99.90;;;;;;4985733;28;20035;-79
2022/04/02 07:26:39;;;;;;;12.40;9.17;;;5.30;99.90;;;;;;4985822;28;19913;-80
2022/04/02 07:29:07;;;;;;;13.05;8.13;;;5.20;99.90;;;;;;4985268;28;20107;-79
2022/04/02 07:31:33;;;;;;;12.38;8.80;;;5.20;99.90;;;;;;4982848;28;20501;-79
2022/04/02 07:33:59;;;;;;;;;;;5.10;99.90;;;;;;4985990;28;20034;-80
2022/04/02 07:36:34;;;;;;;13.13;10.00;;;5.00;99.90;;;;;;4987266;28;19906;-79
2022/04/02 07:39:09;;;;;;;45.47;24.38;;;5.00;99.90;;;;;;4984993;28;20436;-79
2022/04/02 07:41:59;;;;;;;29.00;15.57;;;5.00;99.90;;;;;;4986092;28;20078;-79
2022/04/02 07:44:34;;;;;;;12.23;9.25;;;5.10;99.90;;;;;;4985181;28;20446;-79
2022/04/02 07:46:59;;;;;;;14.70;8.65;;;5.20;99.90;;;;;;4986104;28;20027;-79
2022/04/02 07:49:27;;;;;;;;;;;5.30;99.90;;;;;;4985444;28;20030;-79
2022/04/02 07:51:54;;;;;;;12.88;6.95;;;5.10;99.90;;;;;;4984908;28;19910;-79
2022/04/02 07:54:25;;;;;;;14.07;8.45;;;5.10;99.90;;;;;;4985933;28;20092;-79
2022/04/02 07:56:57;;;;;;;15.43;9.98;;;5.20;99.90;;;;;;4984929;28;20045;-79
2022/04/02 07:59:32;;;;;;;14.45;9.20;;;5.10;99.90;;;;;;4984284;28;20034;-79
2022/04/02 08:01:59;;;;;;;13.45;8.80;;;5.20;99.90;;;;;;4985512;28;20050;-78
2022/04/02 08:04:25;;;;;;;15.10;8.75;;;5.30;99.90;;;;;;4985318;28;20026;-79
2022/04/02 08:06:52;;;;;;;13.02;8.73;;;5.40;99.90;;;;;;4985242;28;20050;-79
2022/04/02 08:09:19;;;;;;;21.23;7.85;;;5.50;99.90;;;;;;4987032;28;20069;-80
2022/04/02 08:11:48;;;;;;;15.68;9.52;;;5.50;99.90;;;;;;4985518;28;20022;-80
2022/04/02 08:14:14;;;;;;;12.77;7.57;;;5.60;99.90;;;;;;4985614;28;20123;-79
2022/04/02 08:16:45;;;;;;;10.65;7.63;;;5.70;99.90;;;;;;4988779;28;20029;-79
2022/04/02 08:19:12;;;;;;;13.80;8.63;;;5.70;99.90;;;;;;4988423;28;20035;-80
2022/04/02 08:21:38;;;;;;;11.13;7.65;;;5.80;99.90;;;;;;4988899;28;20073;-79
2022/04/02 08:24:05;;;;;;;12.30;8.77;;;5.90;99.90;;;;;;4988980;28;20049;-79
2022/04/02 08:26:42;;;;;;;11.80;8.00;;;5.90;99.90;;;;;;4992450;28;20034;-80
2022/04/02 08:29:19;;;;;;;13.25;9.23;;;5.80;99.90;;;;;;4991253;28;20027;-79
2022/04/02 08:31:52;;;;;;;10.10;6.72;;;5.80;99.90;;;;;;4989687;28;20031;-79
2022/04/02 08:34:52;;;;;;;10.32;6.28;;;5.80;99.90;;;;;;4986140;28;20023;-79
2022/04/02 08:37:48;;;;;;;13.18;7.88;;;5.70;99.90;;;;;;4987163;28;20058;-79
2022/04/02 08:40:51;;;;;;;10.43;7.00;;;5.60;99.90;;;;;;4985407;28;20043;-79
2022/04/02 08:43:36;;;;;;;51.67;25.67;;;5.60;99.90;;;;;;4986400;28;20035;-79
2022/04/02 08:46:33;;;;;;;223.13;84.38;;;5.60;99.90;;;;;;4987412;28;20031;-78
2022/04/02 08:49:21;;;;;;;107.40;46.58;;;5.60;99.90;;;;;;4986833;28;20030;-80
2022/04/02 08:52:01;;;;;;;63.05;32.42;;;5.70;99.90;;;;;;4985603;28;20138;-79
2022/04/02 08:54:28;;;;;;;42.53;25.35;;;5.70;99.90;;;;;;4986033;28;20038;-79
2022/04/02 08:57:24;;;;;;;31.58;22.98;;;5.60;99.90;;;;;;4985522;28;20035;-78
2022/04/02 09:00:12;;;;;;;20.55;11.75;;;5.60;99.90;;;;;;4984295;28;20094;-80
2022/04/02 09:02:37;;;;;;;10.75;8.57;;;5.70;99.90;;;;;;4984209;28;20046;-79
2022/04/02 09:05:09;;;;;;;;;;;5.60;99.90;;;;;;4982145;28;20054;-79
2022/04/02 09:07:44;;;;;;;11.30;7.53;;;5.70;99.90;;;;;;4982700;28;19929;-78
2022/04/02 09:10:40;;;;;;;14.65;9.68;;;5.60;99.90;;;;;;4980882;28;20037;-79
2022/04/02 09:13:23;;;;;;;11.27;7.82;;;5.70;99.90;;;;;;4980584;28;20031;-79
2022/04/02 09:16:04;;;;;;;13.65;7.03;;;5.70;99.90;;;;;;4980265;28;20023;-78
2022/04/02 09:18:45;;;;;;;14.88;10.75;;;5.70;99.90;;;;;;4981713;28;20082;-79
2022/04/02 09:21:17;;;;;;;13.60;9.20;;;5.60;99.90;;;;;;4989310;28;20090;-79
2022/04/02 09:23:45;;;;;;;12.82;8.63;;;5.50;99.90;;;;;;4988592;28;20034;-78
2022/04/02 09:26:35;;;;;;;12.18;8.75;;;5.60;99.90;;;;;;4981672;28;20027;-79
2022/04/02 09:29:25;;;;;;;12.07;8.75;;;5.60;99.90;;;;;;4983743;28;20035;-78
2022/04/02 09:31:59;;;;;;;59.40;33.75;;;5.60;99.90;;;;;;4981026;28;20037;-80
2022/04/02 09:34:50;;;;;;;25.90;16.98;;;5.70;99.90;;;;;;4982075;28;20059;-79
2022/04/02 09:37:47;;;;;;;29.00;21.48;;;5.80;99.90;;;;;;4981392;28;20030;-79
2022/04/02 09:40:14;;;;;;;27.00;16.92;;;5.80;99.90;;;;;;4981078;28;20050;-78
2022/04/02 09:42:44;;;;;;;11.15;9.07;;;5.60;99.90;;;;;;4982678;28;20122;-79
2022/04/02 09:45:21;;;;;;;11.13;8.25;;;5.60;99.90;;;;;;4983931;28;20029;-79
2022/04/02 09:48:12;;;;;;;11.82;8.45;;;5.60;99.90;;;;;;4983588;28;20082;-79
2022/04/02 09:50:38;;;;;;;12.45;10.00;;;5.80;99.90;;;;;;4983586;28;20031;-79
2022/04/02 09:53:41;;;;;;;16.88;12.70;;;5.80;99.90;;;;;;4983844;28;20031;-78
2022/04/02 09:56:12;;;;;;;13.65;9.55;;;5.80;99.90;;;;;;4971412;28;20046;-79
2022/04/02 09:58:57;;;;;;;17.83;12.80;;;5.80;99.90;;;;;;4984923;28;20030;-80
2022/04/02 10:01:39;;;;;;;13.98;10.02;;;5.80;99.90;;;;;;4983492;28;20057;-80
2022/04/02 10:04:31;;;;;;;12.77;9.57;;;5.70;99.90;;;;;;4986440;28;20019;-79
2022/04/02 10:07:02;;;;;;;15.90;9.60;;;5.70;99.90;;;;;;4983009;28;20031;-79
2022/04/02 10:09:33;;;;;;;13.95;8.50;;;5.80;99.90;;;;;;4979722;28;20125;-80
2022/04/02 10:12:01;;;;;;;12.50;9.50;;;5.90;99.90;;;;;;4982328;28;20089;-79
2022/04/02 10:14:34;;;;;;;17.80;12.88;;;5.80;99.90;;;;;;4980579;28;20051;-79
2022/04/02 10:17:08;;;;;;;12.88;10.07;;;5.70;99.90;;;;;;4984484;28;20099;-79
2022/04/02 10:19:36;;;;;;;19.40;13.02;;;5.70;99.90;;;;;;4980193;28;20039;-78
2022/04/02 10:22:09;;;;;;;18.10;12.52;;;5.70;99.90;;;;;;4983290;28;20508;-79
2022/04/02 10:24:38;;;;;;;20.27;14.60;;;5.70;99.90;;;;;;4982701;28;20031;-79
2022/04/02 10:27:07;;;;;;;25.52;17.42;;;5.80;99.90;;;;;;4981418;28;20026;-79
2022/04/02 10:30:03;;;;;;;15.15;10.10;;;5.70;99.90;;;;;;4980728;28;20031;-79
2022/04/02 10:32:37;;;;;;;22.33;16.60;;;5.70;99.90;;;;;;4982845;28;20030;-79
2022/04/02 10:35:08;;;;;;;21.40;14.38;;;5.70;99.90;;;;;;4982586;28;20035;-79
2022/04/02 10:37:45;;;;;;;14.02;9.68;;;5.70;99.90;;;;;;4982000;28;20030;-80
2022/04/02 10:40:16;;;;;;;15.43;10.93;;;5.60;99.90;;;;;;4982387;28;20031;-79
2022/04/02 10:42:52;;;;;;;18.75;12.60;;;5.60;99.90;;;;;;4983346;28;20031;-79
2022/04/02 10:45:20;;;;;;;14.85;10.18;;;5.70;99.90;;;;;;4982670;28;20027;-79
2022/04/02 10:47:59;;;;;;;19.92;12.80;;;5.60;99.90;;;;;;4984181;28;20059;-81
2022/04/02 10:50:26;;;;;;;19.85;13.43;;;5.70;99.90;;;;;;4981722;28;20058;-79
2022/04/02 10:52:52;;;;;;;15.85;11.65;;;5.80;99.90;;;;;;4984129;28;20054;-79
2022/04/02 10:55:20;;;;;;;;;;;5.80;99.90;;;;;;4983273;28;20043;-79
2022/04/02 10:57:47;;;;;;;13.05;9.25;;;5.80;99.90;;;;;;4981896;28;19906;-79
2022/04/02 11:00:13;;;;;;;17.50;11.35;;;5.70;99.90;;;;;;4983863;28;20095;-79
2022/04/02 11:02:44;;;;;;;14.20;9.02;;;5.70;99.90;;;;;;4986528;28;20035;-79
2022/04/02 11:05:14;;;;;;;15.73;10.20;;;5.70;99.90;;;;;;4985271;28;20026;-79
2022/04/02 11:07:45;;;;;;;13.88;9.80;;;5.80;99.90;;;;;;4982652;28;20030;-79
2022/04/02 11:10:15;;;;;;;13.23;8.50;;;5.80;99.90;;;;;;4982897;28;20019;-78
2022/04/02 11:12:44;;;;;;;14.70;9.95;;;6.00;99.90;;;;;;4982157;28;20027;-78
2022/04/02 11:15:20;;;;;;;14.35;9.07;;;5.90;99.90;;;;;;4982912;28;20047;-78
2022/04/02 11:17:47;;;;;;;19.77;8.57;;;6.00;99.90;;;;;;4980807;28;20058;-78
2022/04/02 11:20:17;;;;;;;13.30;9.52;;;6.00;99.90;;;;;;4983276;28;20066;-78
2022/04/02 11:22:51;;;;;;;22.23;12.23;;;5.80;99.90;;;;;;4984205;28;20027;-79
2022/04/02 11:25:24;;;;;;;16.05;8.68;;;5.90;99.90;;;;;;4982006;28;20031;-79
2022/04/02 11:27:54;;;;;;;12.40;8.52;;;6.20;99.90;;;;;;4981609;28;20053;-78
2022/04/02 11:30:21;;;;;;;13.43;9.80;;;6.10;99.90;;;;;;4983076;28;20386;-78
2022/04/02 11:32:48;;;;;;;32.13;16.52;;;6.00;99.90;;;;;;4983805;28;20107;-78
2022/04/02 11:35:18;;;;;;;63.97;26.88;;;6.10;99.90;;;;;;4984388;28;20019;-78
2022/04/02 11:38:06;;;;;;;69.75;28.40;;;6.00;99.90;;;;;;4982978;28;20035;-78
2022/04/02 11:40:36;;;;;;;43.22;18.67;;;6.00;99.90;;;;;;4981293;28;20058;-79
2022/04/02 11:43:02;;;;;;;17.27;8.88;;;6.00;99.90;;;;;;4985596;28;20149;-78
2022/04/02 11:45:30;;;;;;;11.13;7.07;;;5.90;99.90;;;;;;4982646;28;20034;-79
2022/04/02 11:48:10;;;;;;;40.47;16.27;;;5.90;99.90;;;;;;4983786;28;20026;-79
2022/04/02 11:50:44;;;;;;;34.25;15.52;;;5.90;99.90;;;;;;4981211;28;20042;-80
2022/04/02 11:53:12;;;;;;;66.95;27.00;;;6.00;99.90;;;;;;4984413;28;20470;-79
2022/04/02 11:55:40;;;;;;;117.65;37.65;;;6.00;99.90;;;;;;4993583;28;20014;-80
2022/04/02 11:58:11;;;;;;;26.60;14.20;;;6.00;99.90;;;;;;4995686;28;20065;-80
2022/04/02 12:00:39;;;;;;;36.53;23.25;;;6.00;99.90;;;;;;4985649;28;20059;-80
2022/04/02 12:03:23;;;;;;;18.60;11.55;;;6.00;99.90;;;;;;4983298;28;20034;-79
2022/04/02 12:05:49;;;;;;;18.17;11.50;;;6.20;99.90;;;;;;4981684;28;20495;-78
2022/04/02 12:08:32;;;;;;;75.38;41.25;;;6.20;99.90;;;;;;4981930;28;20066;-79
2022/04/02 12:10:59;;;;;;;22.45;17.95;;;6.10;99.90;;;;;;4982256;28;20023;-78
2022/04/02 12:13:25;;;;;;;17.92;14.63;;;6.20;99.90;;;;;;4982817;28;20022;-79
2022/04/02 12:16:00;;;;;;;;;;;6.10;99.90;;;;;;4983716;28;20019;-79
2022/04/02 12:18:26;;;;;;;14.05;9.52;;;6.00;99.90;;;;;;4981992;28;19910;-79
2022/04/02 12:21:07;;;;;;;15.65;10.98;;;6.00;99.90;;;;;;4981375;28;20042;-79
2022/04/02 12:23:33;;;;;;;17.42;10.15;;;6.00;99.90;;;;;;4980811;28;20025;-78
2022/04/02 12:26:00;;;;;;;;;;;6.00;99.90;;;;;;4983747;28;20062;-79
2022/04/02 12:28:26;;;;;;;29.15;15.50;;;5.90;99.90;;;;;;4984556;28;19921;-80
2022/04/02 12:30:53;;;;;;;26.40;14.10;;;5.80;99.90;;;;;;4982767;28;20027;-79
2022/04/02 12:33:21;;;;;;;22.40;10.75;;;5.80;99.90;;;;;;4983831;28;20573;-79
2022/04/02 12:36:00;;;;;;;34.05;17.75;;;5.90;99.90;;;;;;4985921;28;20042;-79
2022/04/02 12:38:27;;;;;;;25.15;13.45;;;6.00;99.90;;;;;;4981855;28;20448;-79
2022/04/02 12:40:56;;;;;;;20.45;12.63;;;5.90;99.90;;;;;;4982681;28;20053;-80
2022/04/02 12:43:30;;;;;;;27.83;16.05;;;5.80;99.90;;;;;;4983111;28;20025;-79
2022/04/02 12:45:57;;;;;;;23.73;12.10;;;5.90;99.90;;;;;;4976656;28;20031;-77
2022/04/02 12:48:25;;;;;;;20.48;12.07;;;5.70;99.90;;;;;;4981117;28;20027;-80
2022/04/02 12:51:01;;;;;;;18.55;11.30;;;5.70;99.90;;;;;;4986237;28;20019;-79
2022/04/02 12:53:37;;;;;;;14.90;10.17;;;5.80;99.90;;;;;;4985301;28;20447;-79
2022/04/02 12:56:05;;;;;;;20.52;12.15;;;5.80;99.90;;;;;;4983445;28;20054;-79
2022/04/02 12:58:39;;;;;;;23.42;13.77;;;5.70;99.90;;;;;;4986115;28;20030;-79
2022/04/02 13:01:15;;;;;;;36.25;15.88;;;5.70;99.90;;;;;;4986108;28;20062;-78
2022/04/02 13:03:44;;;;;;;33.35;15.57;;;5.80;99.90;;;;;;4986301;28;20034;-79
2022/04/02 13:06:21;;;;;;;23.15;16.17;;;5.70;99.90;;;;;;4987163;28;20097;-80
2022/04/02 13:08:56;;;;;;;18.95;10.05;;;5.70;99.90;;;;;;4987505;28;20078;-79
2022/04/02 13:11:53;;;;;;;18.13;10.50;;;5.70;99.90;;;;;;4985605;28;20042;-79
2022/04/02 13:14:29;;;;;;;16.83;11.55;;;5.70;99.90;;;;;;4985624;28;20035;-79
2022/04/02 13:17:05;;;;;;;27.17;11.70;;;5.60;99.90;;;;;;4986388;28;20038;-79